Time;durP1;ratioP1;P1;durP2;ratioP2;P2;SDS_P1;SDS_P2;PMS_P1;PMS_P2;Temp;Humidity;BMP_temperature;BMP_pressure;BME280_temperature;BME280_humidity;BME280_pressure;Samples;Min_cycle;Max_cycle;Signal;HPM_P1;HPM_P2
2022/09/29 00:00:16;;;;;;;6.30;5.70;;;;;;;11.86;92.98;98832.00;1720536;83;21084;-75
2022/09/29 00:02:43;;;;;;;5.72;5.22;;;;;;;11.86;92.91;98829.31;1701502;84;21202;-74
2022/09/29 00:05:10;;;;;;;6.40;5.20;;;;;;;11.84;92.81;98832.30;1732260;82;21084;-74
2022/09/29 00:07:39;;;;;;;6.58;5.12;;;;;;;11.84;92.70;98824.77;1760160;80;21025;-74
2022/09/29 00:10:05;;;;;;;7.60;5.53;;;;;;;11.80;92.73;98825.84;1747813;82;20986;-75
2022/09/29 00:12:32;;;;;;;5.37;4.87;;;;;;;11.78;92.83;98823.45;1721213;82;21060;-76
2022/09/29 00:14:58;;;;;;;5.92;5.33;;;;;;;11.77;92.88;98816.44;1727968;82;21047;-76
2022/09/29 00:17:25;;;;;;;8.48;5.53;;;;;;;11.77;92.87;98816.44;1747243;81;21054;-74
2022/09/29 00:19:53;;;;;;;4.72;4.30;;;;;;;11.77;92.82;98817.78;1738889;81;21244;-75
2022/09/29 00:22:21;;;;;;;5.37;4.87;;;;;;;11.77;92.70;98824.52;1747510;82;20946;-74
2022/09/29 00:24:48;;;;;;;5.72;5.00;;;;;;;11.75;92.48;98821.28;1745077;82;21050;-74
2022/09/29 00:27:16;;;;;;;7.42;5.95;;;;;;;11.74;92.40;98820.23;1741112;82;21059;-74
2022/09/29 00:29:42;;;;;;;5.72;4.78;;;;;;;11.73;92.46;98825.36;1750522;81;21539;-72
2022/09/29 00:32:09;;;;;;;6.35;4.75;;;;;;;11.75;92.36;98823.17;1748365;81;21135;-73
2022/09/29 00:34:36;;;;;;;3.95;3.65;;;;;;;11.77;92.16;98831.25;1748534;80;21063;-75
2022/09/29 00:37:03;;;;;;;5.92;4.35;;;;;;;11.79;91.79;98836.38;1717441;82;21500;-72
2022/09/29 00:39:29;;;;;;;5.42;3.95;;;;;;;11.80;91.51;98840.66;1730289;82;22227;-75
2022/09/29 00:41:56;;;;;;;4.70;4.08;;;;;;;11.79;91.40;98847.15;1701468;82;21532;-73
2022/09/29 00:44:57;;;;;;;6.92;5.58;;;;;;;11.80;91.22;98846.85;1739674;82;21558;-75
2022/09/29 00:47:24;;;;;;;4.95;4.45;;;;;;;11.80;91.11;98853.58;1725100;83;21042;-76
2022/09/29 00:50:06;;;;;;;5.97;4.58;;;;;;;11.81;91.07;98850.36;1738621;82;21124;-72
2022/09/29 00:52:43;;;;;;;5.42;4.78;;;;;;;11.81;90.99;98855.73;1742025;82;21501;-74
2022/09/29 00:55:18;;;;;;;4.50;4.10;;;;;;;11.84;91.00;98857.09;1673463;83;21068;-74
2022/09/29 00:57:54;;;;;;;6.22;4.95;;;;;;;11.82;90.91;98858.70;1721348;82;21122;-73
2022/09/29 01:00:21;;;;;;;9.40;5.20;;;;;;;11.81;90.83;98859.78;1745674;82;20991;-74
2022/09/29 01:03:01;;;;;;;4.28;3.98;;;;;;;11.79;90.77;98864.66;1747283;82;20895;-76
2022/09/29 01:05:35;;;;;;;4.15;3.75;;;;;;;11.75;90.83;98867.08;1738840;82;21066;-73
2022/09/29 01:08:10;;;;;;;4.83;4.42;;;;;;;11.73;90.87;98868.45;1723729;82;22313;-76
2022/09/29 01:10:39;;;;;;;4.47;4.08;;;;;;;11.75;90.94;98876.52;1738200;81;21053;-74
2022/09/29 01:13:06;;;;;;;5.40;3.87;;;;;;;11.76;90.88;98870.05;1722225;82;20990;-74
2022/09/29 01:15:33;;;;;;;4.05;3.65;;;;;;;11.78;90.73;98867.09;1687813;83;21076;-74
2022/09/29 01:18:00;;;;;;;5.10;4.10;;;;;;;11.79;90.59;98872.74;1697192;84;21066;-74
2022/09/29 01:20:26;;;;;;;4.75;4.08;;;;;;;11.80;90.50;98878.37;1723533;82;21595;-77
2022/09/29 01:23:18;;;;;;;5.12;4.65;;;;;;;11.79;90.33;98881.63;1739286;82;21304;-72
2022/09/29 01:26:03;;;;;;;4.50;3.92;;;;;;;11.78;90.30;98887.28;1754729;81;21006;-74
2022/09/29 01:28:50;;;;;;;6.40;4.12;;;;;;;11.79;90.26;98886.21;1741059;80;21046;-71
2022/09/29 01:31:36;;;;;;;3.87;3.58;;;;;;;11.82;90.23;98882.14;1740789;82;21043;-71
2022/09/29 01:34:38;;;;;;;5.20;4.47;;;;;;;11.88;90.17;98893.16;1730820;82;20978;-70
2022/09/29 01:37:46;;;;;;;5.70;4.05;;;;;;;11.94;89.88;98888.02;1703874;82;21161;-72
2022/09/29 01:40:41;;;;;;;5.08;4.50;;;;;;;11.96;89.53;98889.34;1738517;81;21002;-71
2022/09/29 01:43:17;;;;;;;6.17;4.12;;;;;;;11.95;89.34;98894.45;1739246;82;21037;-71
2022/09/29 01:46:03;;;;;;;4.90;4.50;;;;;;;11.94;89.18;98900.92;1731209;82;21086;-73
2022/09/29 01:48:33;;;;;;;6.45;4.20;;;;;;;11.93;89.13;98895.83;1750287;81;21078;-71
2022/09/29 01:51:07;;;;;;;4.87;4.05;;;;;;;11.92;89.14;98899.06;1740540;82;21955;-72
2022/09/29 01:53:38;;;;;;;5.53;4.08;;;;;;;11.93;89.06;98902.57;1719543;82;21081;-72
2022/09/29 01:56:11;;;;;;;8.58;6.35;;;;;;;11.96;89.15;98908.20;1718283;83;21632;-72
2022/09/29 01:58:52;;;;;;;5.62;5.10;;;;;;;11.98;89.07;98908.75;1738292;82;20985;-73
2022/09/29 02:01:20;;;;;;;9.63;5.70;;;;;;;12.01;88.99;98911.41;1745030;81;21068;-73
2022/09/29 02:03:56;;;;;;;6.15;5.17;;;;;;;11.98;88.91;98925.45;1738947;82;21156;-72
2022/09/29 02:06:28;;;;;;;8.60;6.10;;;;;;;11.94;88.94;98924.41;1739621;82;21062;-74
2022/09/29 02:08:55;;;;;;;7.00;5.08;;;;;;;11.88;89.06;98921.45;1740524;82;21044;-73
2022/09/29 02:11:22;;;;;;;5.78;5.28;;;;;;;11.85;89.24;98921.45;1740029;82;20966;-72
2022/09/29 02:14:04;;;;;;;7.40;5.45;;;;;;;11.86;89.50;98924.42;1740460;81;21050;-73
2022/09/29 02:16:35;;;;;;;4.92;4.50;;;;;;;11.90;89.53;98924.13;1700170;83;21415;-72
2022/09/29 02:19:09;;;;;;;6.50;5.28;;;;;;;11.96;89.43;98927.61;1717519;83;20989;-73
2022/09/29 02:21:36;;;;;;;6.95;4.87;;;;;;;11.98;89.25;98928.14;1700950;84;21592;-70
2022/09/29 02:24:03;;;;;;;4.67;4.28;;;;;;;11.97;89.13;98921.14;1701602;84;21030;-76
2022/09/29 02:26:36;;;;;;;5.00;4.50;;;;;;;11.98;89.17;98922.22;1701546;84;21042;-73
2022/09/29 02:29:03;;;;;;;4.90;4.40;;;;;;;11.98;89.03;98921.41;1689799;84;21182;-71
2022/09/29 02:31:31;;;;;;;6.03;4.35;;;;;;;11.97;88.84;98921.14;1701665;84;21082;-72
2022/09/29 02:33:59;;;;;;;5.08;4.65;;;;;;;11.95;88.73;98924.64;1681022;84;21560;-70
2022/09/29 02:37:03;;;;;;;6.10;4.95;;;;;;;11.94;88.69;98924.41;1700169;84;21523;-71
2022/09/29 02:39:57;;;;;;;5.10;4.70;;;;;;;11.95;88.64;98926.80;1700370;84;21062;-72
2022/09/29 02:42:55;;;;;;;6.60;5.20;;;;;;;11.97;88.50;98921.14;1710141;82;21797;-72
2022/09/29 02:45:36;;;;;;;4.90;4.50;;;;;;;11.91;88.02;98927.63;1703638;82;21062;-74
2022/09/29 02:48:55;;;;;;;7.35;4.83;;;;;;;11.82;88.21;98927.95;1720606;83;21053;-70
2022/09/29 02:51:42;;;;;;;6.10;4.22;;;;;;;11.80;88.39;98926.86;1701389;84;21548;-71
2022/09/29 02:54:32;;;;;;;5.75;5.20;;;;;;;11.79;88.41;98935.52;1701331;83;21582;-71
2022/09/29 02:57:31;;;;;;;6.03;5.53;;;;;;;11.78;88.48;98939.82;1699932;84;21101;-72
2022/09/29 03:00:10;;;;;;;6.25;5.35;;;;;;;11.76;88.52;98936.58;1718716;83;21616;-71
2022/09/29 03:02:34;;;;;;;5.42;4.92;;;;;;;11.76;88.42;98936.58;1702152;83;21166;-73
2022/09/29 03:05:04;;;;;;;6.62;5.15;;;;;;;11.74;88.47;98944.16;1720334;83;21088;-71
2022/09/29 03:07:32;;;;;;;5.90;5.40;;;;;;;11.68;88.59;98931.75;1699674;84;21106;-73
2022/09/29 03:09:58;;;;;;;5.70;5.20;;;;;;;11.64;88.69;98934.73;1708863;82;21613;-72
2022/09/29 03:12:25;;;;;;;9.48;5.62;;;;;;;11.59;88.87;98934.75;1700867;84;21074;-71
2022/09/29 03:14:52;;;;;;;5.85;5.35;;;;;;;11.55;88.93;98933.15;1678606;84;20979;-71
2022/09/29 03:17:19;;;;;;;5.85;4.90;;;;;;;11.53;89.10;98943.38;1701530;84;21062;-71
2022/09/29 03:19:46;;;;;;;4.53;4.17;;;;;;;11.53;89.10;98935.30;1699858;84;21606;-72
2022/09/29 03:22:13;;;;;;;5.22;4.72;;;;;;;11.53;89.12;98943.38;1701091;84;21079;-73
2022/09/29 03:24:40;;;;;;;5.85;5.35;;;;;;;11.50;89.06;98941.78;1700414;82;21110;-76
2022/09/29 03:27:08;;;;;;;6.10;5.20;;;;;;;11.47;89.03;98944.46;1701765;84;21102;-72
2022/09/29 03:29:36;;;;;;;5.75;5.25;;;;;;;11.45;89.05;98949.87;1654345;83;21106;-71
2022/09/29 03:32:04;;;;;;;5.65;4.40;;;;;;;11.39;89.07;98950.41;1744640;82;21010;-72
2022/09/29 03:34:32;;;;;;;4.72;4.22;;;;;;;11.34;89.30;98949.08;1724107;82;21227;-69
2022/09/29 03:36:59;;;;;;;6.55;3.40;;;;;;;11.31;89.56;98943.72;1726258;82;21029;-71
2022/09/29 03:39:26;;;;;;;4.22;3.27;;;;;;;11.32;89.92;98944.49;1771822;80;21006;-72
2022/09/29 03:41:52;;;;;;;4.65;4.17;;;;;;;11.36;90.08;98941.55;1746359;82;21051;-71
2022/09/29 03:44:19;;;;;;;7.17;4.62;;;;;;;11.42;90.00;98942.31;1746835;81;21030;-73
2022/09/29 03:46:46;;;;;;;6.83;4.80;;;;;;;11.42;89.74;98937.75;1748228;82;21675;-71
2022/09/29 03:49:16;;;;;;;4.30;3.95;;;;;;;11.41;89.59;98947.46;1747995;82;21044;-72
2022/09/29 03:51:43;;;;;;;5.00;4.60;;;;;;;11.39;89.54;98953.11;1743903;82;21038;-72
2022/09/29 03:54:11;;;;;;;7.92;4.67;;;;;;;11.36;89.51;98957.17;1750891;80;21085;-71
2022/09/29 03:56:38;;;;;;;4.97;4.47;;;;;;;11.34;89.60;98970.08;1745502;82;21033;-73
2022/09/29 03:59:08;;;;;;;5.15;4.72;;;;;;;11.32;89.70;98976.80;1747499;82;21036;-72
2022/09/29 04:01:36;;;;;;;6.12;3.80;;;;;;;11.31;89.83;98973.86;1728278;82;22205;-71
2022/09/29 04:04:05;;;;;;;4.72;4.20;;;;;;;11.31;89.94;98980.06;1748219;82;21058;-73
2022/09/29 04:06:32;;;;;;;6.62;4.80;;;;;;;11.30;89.96;98981.13;1725605;82;21010;-73
2022/09/29 04:08:59;;;;;;;5.25;4.65;;;;;;;11.30;89.98;98976.28;1746148;81;21050;-72
2022/09/29 04:11:26;;;;;;;5.15;4.62;;;;;;;11.26;89.91;98979.25;1740408;82;21225;-70
2022/09/29 04:13:54;;;;;;;5.70;4.95;;;;;;;11.22;90.02;98985.70;1738677;82;21825;-72
2022/09/29 04:16:21;;;;;;;11.40;5.95;;;;;;;11.19;90.10;98994.86;1740209;82;20962;-72
2022/09/29 04:18:48;;;;;;;6.53;5.92;;;;;;;11.16;90.15;98998.10;1739788;82;21067;-72
2022/09/29 04:21:15;;;;;;;5.55;5.00;;;;;;;11.13;90.28;98995.93;1740075;82;21089;-73
2022/09/29 04:23:42;;;;;;;4.83;4.35;;;;;;;11.15;90.47;99005.36;1754299;81;21237;-71
2022/09/29 04:26:08;;;;;;;5.50;4.33;;;;;;;11.16;90.67;99007.52;1738162;81;20942;-70
2022/09/29 04:28:37;;;;;;;5.58;5.08;;;;;;;11.18;90.79;99006.70;1714940;83;21032;-71
2022/09/29 04:31:04;;;;;;;10.75;5.65;;;;;;;11.17;90.89;99003.22;1719455;83;21605;-72
2022/09/29 04:33:30;;;;;;;6.70;5.87;;;;;;;11.15;90.82;99004.02;1726000;83;21731;-70
2022/09/29 04:35:58;;;;;;;6.60;6.00;;;;;;;11.12;90.84;99011.30;1720319;83;21045;-69
2022/09/29 04:38:25;;;;;;;9.90;5.40;;;;;;;11.08;90.91;99006.73;1730171;82;21022;-71
2022/09/29 04:40:51;;;;;;;7.67;5.92;;;;;;;11.05;91.08;99010.75;1749272;82;21025;-70
2022/09/29 04:43:18;;;;;;;6.28;5.67;;;;;;;11.04;91.32;99013.16;1734572;82;22251;-69
2022/09/29 04:45:44;;;;;;;6.75;5.80;;;;;;;11.06;91.58;99013.72;1719031;83;21137;-70
2022/09/29 04:48:12;;;;;;;9.00;5.90;;;;;;;11.11;91.63;99012.37;1720759;83;22291;-70
2022/09/29 04:50:40;;;;;;;6.47;5.87;;;;;;;11.15;91.70;99012.09;1720423;83;21631;-72
2022/09/29 04:53:07;;;;;;;6.08;5.58;;;;;;;11.19;91.56;99002.94;1720540;83;20965;-70
2022/09/29 04:55:37;;;;;;;9.15;5.55;;;;;;;11.22;91.53;99017.22;1737432;82;21072;-70
2022/09/29 04:58:04;;;;;;;8.18;5.80;;;;;;;11.22;91.43;99009.92;1750363;82;21088;-71
2022/09/29 05:00:31;;;;;;;7.17;5.00;;;;;;;11.20;91.30;99014.78;1745688;81;21242;-69
2022/09/29 05:02:59;;;;;;;5.03;4.53;;;;;;;11.20;91.32;99013.97;1689991;84;21120;-72
2022/09/29 05:05:26;;;;;;;6.03;5.47;;;;;;;11.22;91.44;99008.58;1676276;84;22318;-68
2022/09/29 05:07:52;;;;;;;6.10;5.60;;;;;;;11.21;91.22;99005.64;1701622;84;21694;-72
2022/09/29 05:10:19;;;;;;;5.97;5.47;;;;;;;11.13;91.22;99003.47;1712356;82;21113;-71
2022/09/29 05:12:49;;;;;;;9.05;7.97;;;;;;;11.06;91.54;99002.95;1730240;82;21552;-72
2022/09/29 05:15:17;;;;;;;8.88;7.97;;;;;;;11.02;91.84;99000.53;1730005;82;21063;-71
2022/09/29 05:17:44;;;;;;;10.30;9.18;;;;;;;11.01;92.23;99004.30;1701740;84;21074;-73
2022/09/29 05:20:10;;;;;;;6.97;6.10;;;;;;;11.02;92.49;98997.03;1701614;84;21046;-74
2022/09/29 05:22:38;;;;;;;12.33;7.58;;;;;;;11.04;92.65;98997.02;1701685;84;21036;-71
2022/09/29 05:25:07;;;;;;;9.50;7.17;;;;;;;11.05;92.74;99006.71;1701547;84;21727;-73
2022/09/29 05:27:36;;;;;;;9.48;6.90;;;;;;;11.07;92.83;99005.92;1681010;84;21063;-69
2022/09/29 05:30:04;;;;;;;7.95;6.70;;;;;;;11.12;93.11;99010.48;1703894;84;20995;-68
2022/09/29 05:32:35;;;;;;;8.03;7.22;;;;;;;11.18;92.90;99016.92;1704662;84;21011;-70
2022/09/29 05:35:04;;;;;;;17.02;7.33;;;;;;;11.22;92.83;99015.30;1740974;82;21010;-69
2022/09/29 05:37:31;;;;;;;9.35;8.48;;;;;;;11.22;92.57;99006.45;1740731;82;21287;-70
2022/09/29 05:39:57;;;;;;;9.10;7.17;;;;;;;11.20;92.56;99016.66;1740640;82;20994;-73
2022/09/29 05:42:24;;;;;;;7.65;6.60;;;;;;;11.25;92.69;99021.52;1751698;81;21584;-70
2022/09/29 05:44:51;;;;;;;15.55;7.40;;;;;;;11.29;92.62;99031.19;1739715;82;21559;-70
2022/09/29 05:47:17;;;;;;;8.53;7.62;;;;;;;11.30;92.44;99039.01;1740876;82;21011;-71
2022/09/29 05:49:44;;;;;;;8.28;6.53;;;;;;;11.30;92.13;99038.20;1740810;82;22077;-70
2022/09/29 05:52:10;;;;;;;30.23;22.77;;;;;;;11.25;92.15;99042.23;1741059;82;21614;-71
2022/09/29 05:54:38;;;;;;;23.70;15.88;;;;;;;11.22;92.43;99035.49;1740637;82;21030;-72
2022/09/29 05:57:05;;;;;;;12.33;9.25;;;;;;;11.17;92.83;99046.82;1763020;81;21603;-77
2022/09/29 05:59:32;;;;;;;10.32;8.55;;;;;;;11.08;93.44;99049.22;1746938;82;21105;-70
2022/09/29 06:01:58;;;;;;;9.35;8.10;;;;;;;11.02;94.33;99047.63;1740521;82;21111;-69
2022/09/29 06:04:25;;;;;;;8.43;7.53;;;;;;;11.01;94.93;99048.69;1740230;82;21078;-71
2022/09/29 06:06:51;;;;;;;12.82;8.18;;;;;;;10.99;95.34;99046.80;1740641;82;21104;-73
2022/09/29 06:09:18;;;;;;;6.70;6.15;;;;;;;11.03;96.03;99050.56;1740686;82;20990;-72
2022/09/29 06:11:44;;;;;;;13.60;6.67;;;;;;;11.06;96.30;99045.20;1760507;81;21518;-73
2022/09/29 06:14:11;;;;;;;9.08;6.83;;;;;;;11.10;96.62;99043.58;1750570;81;21128;-74
2022/09/29 06:16:37;;;;;;;14.78;9.68;;;;;;;11.14;96.76;99046.00;1750544;82;21550;-72
2022/09/29 06:19:04;;;;;;;17.92;15.90;;;;;;;11.21;96.93;99049.23;1738392;82;21778;-71
2022/09/29 06:21:32;;;;;;;8.78;7.90;;;;;;;11.29;97.04;99050.03;1719202;83;22296;-70
2022/09/29 06:23:59;;;;;;;8.90;7.20;;;;;;;11.39;97.08;99050.03;1719168;83;21774;-72
2022/09/29 06:26:26;;;;;;;11.78;7.40;;;;;;;11.39;96.58;99051.38;1746951;81;21080;-71
2022/09/29 06:28:54;;;;;;;9.63;7.72;;;;;;;11.35;96.75;99055.70;1750282;82;20985;-70
2022/09/29 06:31:23;;;;;;;13.70;7.80;;;;;;;11.37;96.97;99054.87;1750441;82;21048;-72
2022/09/29 06:33:50;;;;;;;12.03;8.05;;;;;;;11.42;97.27;99051.36;1750335;82;21020;-76
2022/09/29 06:39:25;;;;;;;16.10;9.33;;;;;;;11.51;97.58;99051.11;1726223;82;21493;-72
2022/09/29 06:41:55;;;;;;;8.70;7.90;;;;;;;11.59;97.82;99056.75;1727929;82;21050;-71
2022/09/29 06:44:27;;;;;;;10.10;7.30;;;;;;;11.64;97.79;99055.94;1715839;82;20927;-70
2022/09/29 06:46:56;;;;;;;9.00;8.03;;;;;;;11.68;97.83;99058.34;1701315;84;21097;-73
2022/09/29 06:49:23;;;;;;;8.68;7.55;;;;;;;11.71;98.01;99062.64;1701499;84;21086;-70
2022/09/29 06:51:50;;;;;;;13.65;8.08;;;;;;;11.75;98.23;99063.73;1740519;82;21595;-71
2022/09/29 06:54:19;;;;;;;13.58;8.05;;;;;;;11.84;98.21;99067.23;1740361;81;20961;-74
2022/09/29 06:56:50;;;;;;;7.90;7.15;;;;;;;11.90;98.06;99075.56;1711004;83;21013;-71
2022/09/29 06:59:17;;;;;;;10.15;7.80;;;;;;;11.97;97.90;99082.83;1725666;82;21010;-72
2022/09/29 07:01:48;;;;;;;9.93;9.03;;;;;;;11.99;97.35;99080.11;1740604;82;21140;-70
2022/09/29 07:04:13;;;;;;;15.53;8.98;;;;;;;12.01;97.35;99079.31;1740276;82;21065;-69
2022/09/29 07:06:40;;;;;;;18.92;10.48;;;;;;;12.08;97.28;99081.19;1740504;82;21539;-73
2022/09/29 07:09:14;;;;;;;11.97;7.92;;;;;;;12.19;97.29;99088.14;1747072;80;21593;-72
2022/09/29 07:11:38;;;;;;;8.38;7.37;;;;;;;12.29;96.71;99096.73;1778161;80;21003;-72
2022/09/29 07:14:05;;;;;;;8.95;8.10;;;;;;;12.32;96.00;99094.86;1762246;80;21551;-72
2022/09/29 07:16:32;;;;;;;7.97;7.17;;;;;;;12.34;96.04;99100.77;1747939;82;21524;-73
2022/09/29 07:18:59;;;;;;;8.50;7.20;;;;;;;12.39;95.72;99095.89;1747776;82;21030;-73
2022/09/29 07:21:27;;;;;;;7.83;6.95;;;;;;;12.40;95.29;99088.07;1747872;82;20970;-71
2022/09/29 07:23:55;;;;;;;6.85;6.25;;;;;;;12.47;95.20;99084.55;1749430;80;21042;-71
2022/09/29 07:26:21;;;;;;;9.20;6.08;;;;;;;12.61;95.29;99089.61;1779212;80;22188;-73
2022/09/29 07:28:48;;;;;;;12.88;5.55;;;;;;;12.74;94.87;99102.48;1778717;80;21319;-76
2022/09/29 07:31:18;;;;;;;12.47;7.55;;;;;;;12.85;94.39;99101.34;1779014;80;21018;-73
2022/09/29 07:33:47;;;;;;;8.28;6.33;;;;;;;12.94;93.90;99105.06;1762102;80;20934;-73
2022/09/29 07:36:16;;;;;;;7.95;7.15;;;;;;;13.01;93.65;99107.44;1747899;82;21017;-74
2022/09/29 07:38:49;;;;;;;10.55;6.87;;;;;;;13.08;93.13;99103.36;1747144;80;21080;-74
2022/09/29 07:41:18;;;;;;;9.13;6.65;;;;;;;13.18;93.08;99096.30;1758853;80;21111;-74
2022/09/29 07:43:47;;;;;;;5.37;4.78;;;;;;;13.26;92.51;99095.69;1743621;81;39384;-72
2022/09/29 07:46:15;;;;;;;7.78;6.72;;;;;;;13.32;92.28;99098.08;1747474;82;21574;-73
2022/09/29 07:48:43;;;;;;;11.57;5.97;;;;;;;13.38;91.87;99092.88;1748128;82;21045;-73
2022/09/29 07:51:16;;;;;;;6.75;4.97;;;;;;;13.50;91.47;99092.52;1748073;82;21045;-71
2022/09/29 07:53:43;;;;;;;8.03;5.97;;;;;;;13.64;90.65;99093.48;1747946;82;21121;-72
2022/09/29 07:56:19;;;;;;;8.85;6.12;;;;;;;13.76;89.84;99099.33;1745956;81;33431;-72
2022/09/29 07:58:48;;;;;;;8.40;6.30;;;;;;;13.90;89.42;99100.81;1745960;82;21611;-72
2022/09/29 08:01:16;;;;;;;7.72;5.40;;;;;;;14.07;88.65;99096.30;1746516;82;20965;-74
2022/09/29 08:03:46;;;;;;;7.75;4.78;;;;;;;14.20;88.23;99086.13;1746402;82;21078;-71
2022/09/29 08:06:13;;;;;;;6.80;4.58;;;;;;;14.30;87.00;99081.41;1746264;82;21205;-70
2022/09/29 08:08:40;;;;;;;5.55;4.97;;;;;;;14.35;85.84;99077.30;1768604;80;21527;-72
2022/09/29 08:11:12;;;;;;;7.15;4.72;;;;;;;14.41;85.44;99080.78;1772880;80;21062;-69
2022/09/29 08:13:41;;;;;;;3.90;3.60;;;;;;;14.47;84.62;99085.59;1746333;82;21507;-72
2022/09/29 08:16:11;;;;;;;3.87;3.52;;;;;;;14.56;83.71;99074.38;1748230;82;21518;-71
2022/09/29 08:18:38;;;;;;;5.75;3.47;;;;;;;14.64;83.12;99080.48;1731906;82;21105;-73
2022/09/29 08:21:05;;;;;;;7.67;5.12;;;;;;;14.76;82.70;99085.74;1738530;82;21001;-73
2022/09/29 08:23:37;;;;;;;7.28;4.72;;;;;;;14.88;82.43;99086.64;1727061;80;21097;-72
2022/09/29 08:26:13;;;;;;;9.15;4.20;;;;;;;14.98;82.15;99083.79;1766641;80;21070;-71
2022/09/29 08:28:40;;;;;;;3.90;3.37;;;;;;;15.09;80.49;99081.20;1746975;82;21005;-71
2022/09/29 08:31:19;;;;;;;7.90;3.50;;;;;;;15.22;78.59;99084.51;1746587;82;21119;-68
2022/09/29 08:33:45;;;;;;;5.15;4.62;;;;;;;15.33;76.92;99082.45;1747255;82;20951;-71
2022/09/29 08:36:15;;;;;;;4.90;4.20;;;;;;;15.46;76.12;99091.71;1747957;82;21002;-70
2022/09/29 08:38:45;;;;;;;7.03;3.42;;;;;;;15.56;74.81;99099.16;1748005;82;21061;-72
2022/09/29 08:41:40;;;;;;;4.95;2.92;;;;;;;15.62;72.96;99092.56;1756477;80;21097;-73
2022/09/29 08:44:38;;;;;;;34.40;24.37;;;;;;;15.65;72.45;99096.02;1726042;81;21105;-71
2022/09/29 08:47:19;;;;;;;8.23;7.40;;;;;;;15.67;70.97;99097.89;1735269;82;21079;-77
2022/09/29 08:49:58;;;;;;;8.83;4.20;;;;;;;15.74;71.64;99100.75;1691432;84;21063;-72
2022/09/29 08:52:30;;;;;;;8.43;2.90;;;;;;;15.85;71.54;99100.28;1699478;84;21102;-70
2022/09/29 08:55:02;;;;;;;3.70;3.17;;;;;;;15.98;70.86;99100.05;1729552;82;21034;-70
2022/09/29 08:57:29;;;;;;;3.67;3.37;;;;;;;16.05;70.04;99089.62;1737204;81;21115;-72
2022/09/29 08:59:58;;;;;;;4.92;2.90;;;;;;;16.05;69.85;99088.27;1744980;82;21691;-73
2022/09/29 09:02:43;;;;;;;5.83;3.33;;;;;;;16.08;70.40;99087.10;1755621;80;21702;-72
2022/09/29 09:05:20;;;;;;;3.85;3.45;;;;;;;16.17;69.79;99087.75;1696046;83;21663;-71
2022/09/29 09:08:11;;;;;;;8.28;5.10;;;;;;;16.28;69.17;99084.55;1748228;81;21054;-71
2022/09/29 09:10:51;;;;;;;3.75;3.45;;;;;;;16.41;68.72;99089.70;1707281;83;21793;-76
2022/09/29 09:13:38;;;;;;;5.70;3.62;;;;;;;16.52;67.52;99089.77;1690801;84;21068;-70
2022/09/29 09:16:20;;;;;;;2.98;2.67;;;;;;;16.59;66.69;99087.48;1643414;85;21058;-70
2022/09/29 09:19:02;;;;;;;2.90;2.50;;;;;;;16.69;66.58;99081.03;1671821;85;21076;-71
2022/09/29 09:21:45;;;;;;;4.90;2.30;;;;;;;16.81;65.16;99079.94;1640719;87;21075;-72
2022/09/29 09:24:23;;;;;;;3.12;2.85;;;;;;;16.85;64.03;99073.59;1581353;87;21079;-72
2022/09/29 09:26:51;;;;;;;4.80;2.90;;;;;;;16.92;64.67;99067.75;1678822;85;21048;-74
2022/09/29 09:29:28;;;;;;;3.80;3.25;;;;;;;16.97;63.67;99070.34;1693355;84;21115;-72
2022/09/29 09:31:59;;;;;;;2.55;2.22;;;;;;;17.02;62.67;99077.58;1704095;82;20968;-70
2022/09/29 09:34:47;;;;;;;4.12;2.75;;;;;;;17.11;62.92;99075.18;1691752;83;21006;-75
2022/09/29 09:37:19;;;;;;;2.98;2.70;;;;;;;17.17;61.45;99066.36;1705502;84;21152;-75
2022/09/29 09:39:55;;;;;;;5.08;2.72;;;;;;;17.17;60.08;99075.87;1623541;85;21023;-73
2022/09/29 09:42:29;;;;;;;2.92;2.52;;;;;;;17.22;60.54;99066.20;1682772;84;21027;-73
2022/09/29 09:45:20;;;;;;;7.47;2.92;;;;;;;17.28;60.65;99063.06;1635332;87;21048;-74
2022/09/29 09:47:52;;;;;;;3.98;3.08;;;;;;;17.41;60.10;99068.98;1671992;85;21071;-73
2022/09/29 09:50:21;;;;;;;3.05;2.75;;;;;;;17.53;59.69;99075.23;1645259;85;21169;-73
2022/09/29 09:53:07;;;;;;;4.28;2.85;;;;;;;17.59;58.65;99069.15;1648854;85;21086;-73
2022/09/29 09:55:35;;;;;;;6.50;2.83;;;;;;;17.63;57.45;99070.13;1656067;84;21127;-71
2022/09/29 09:58:42;;;;;;;4.33;2.98;;;;;;;17.68;55.69;99067.28;1705384;84;21096;-76
2022/09/29 10:01:11;;;;;;;8.20;3.40;;;;;;;17.74;56.06;99073.64;1707255;84;21057;-74
2022/09/29 10:03:37;;;;;;;5.17;3.08;;;;;;;17.84;55.83;99072.58;1707035;83;21159;-71
2022/09/29 10:06:06;;;;;;;3.85;2.87;;;;;;;17.91;55.17;99073.47;1706794;84;21088;-71
2022/09/29 10:08:38;;;;;;;4.28;3.02;;;;;;;17.89;55.73;99071.64;1711432;82;21519;-75
2022/09/29 10:11:24;;;;;;;2.98;2.65;;;;;;;17.84;56.05;99069.86;1746682;82;21098;-72
2022/09/29 10:14:20;;;;;;;6.45;2.83;;;;;;;17.81;56.38;99073.98;1746727;80;21025;-71
2022/09/29 10:16:56;;;;;;;3.90;2.30;;;;;;;17.81;57.22;99075.34;1741573;82;21158;-72
2022/09/29 10:19:30;;;;;;;2.83;2.30;;;;;;;17.82;56.88;99078.32;1767972;80;21570;-74
2022/09/29 10:22:00;;;;;;;4.50;2.87;;;;;;;17.82;56.80;99079.67;1764362;80;20982;-74
2022/09/29 10:24:29;;;;;;;3.37;2.10;;;;;;;17.81;56.62;99075.90;1727534;80;20995;-73
2022/09/29 10:26:58;;;;;;;2.85;2.17;;;;;;;17.80;55.60;99071.57;1745277;82;21058;-78
2022/09/29 10:29:37;;;;;;;2.12;1.92;;;;;;;17.83;54.73;99069.60;1707690;83;21211;-73
2022/09/29 10:32:15;;;;;;;1.72;1.62;;;;;;;17.89;53.12;99069.69;1728549;82;21058;-73
2022/09/29 10:34:45;;;;;;;2.50;1.85;;;;;;;17.95;52.62;99081.25;1749306;81;21058;-71
2022/09/29 10:37:35;;;;;;;4.67;2.72;;;;;;;17.96;52.58;99082.30;1720104;83;21180;-66
2022/09/29 10:40:14;;;;;;;3.75;2.85;;;;;;;18.02;52.26;99078.89;1746694;81;21015;-72
2022/09/29 10:42:45;;;;;;;7.55;2.90;;;;;;;18.09;51.39;99079.23;1725721;82;21152;-75
2022/09/29 10:45:28;;;;;;;6.95;2.72;;;;;;;18.18;50.84;99083.59;1718520;83;21526;-73
2022/09/29 10:48:13;;;;;;;3.10;2.10;;;;;;;18.33;50.29;99081.55;1737660;82;21988;-71
2022/09/29 10:50:53;;;;;;;4.47;2.30;;;;;;;18.52;50.03;99072.00;1774411;80;21527;-70
2022/09/29 10:53:41;;;;;;;3.83;2.85;;;;;;;18.73;49.25;99074.97;1778994;80;21058;-71
2022/09/29 10:56:16;;;;;;;11.05;2.00;;;;;;;18.93;48.48;99073.55;1745888;82;21143;-74
2022/09/29 10:58:47;;;;;;;4.30;2.62;;;;;;;19.09;47.48;99071.94;1753581;80;21022;-69
2022/09/29 11:01:15;;;;;;;1.90;1.80;;;;;;;19.24;46.73;99071.45;1747402;80;21089;-70
2022/09/29 11:04:46;;;;;;;1.80;1.70;;;;;;;19.42;47.05;99063.52;1744149;80;21050;-69
2022/09/29 11:07:15;;;;;;;4.15;1.60;;;;;;;19.50;44.90;99057.27;1718254;83;20985;-74
2022/09/29 11:09:43;;;;;;;2.20;1.85;;;;;;;19.51;45.66;99052.62;1735376;82;21232;-69
2022/09/29 11:12:31;;;;;;;1.72;1.50;;;;;;;19.55;44.83;99048.11;1746402;82;21014;-72
2022/09/29 11:15:00;;;;;;;1.80;1.57;;;;;;;19.53;43.88;99053.88;1696669;82;21075;-73
2022/09/29 11:17:30;;;;;;;2.77;1.87;;;;;;;19.52;44.57;99052.83;1727740;81;20987;-73
2022/09/29 11:20:02;;;;;;;7.55;2.55;;;;;;;19.58;45.28;99049.63;1731055;80;21046;-72
2022/09/29 11:22:56;;;;;;;4.28;1.60;;;;;;;19.73;44.51;99052.39;1721306;82;21335;-80
2022/09/29 11:25:49;;;;;;;1.35;1.25;;;;;;;19.97;43.42;99047.73;1713542;83;21522;-78
2022/09/29 11:28:36;;;;;;;3.55;2.37;;;;;;;19.97;43.42;99047.73;1724094;81;21097;-81
2022/09/29 11:31:23;;;;;;;2.52;1.70;;;;;;;20.09;44.03;99045.69;1747058;80;20983;-79
2022/09/29 11:34:21;;;;;;;5.28;1.85;;;;;;;20.20;43.60;99056.46;1716878;81;21097;-73
2022/09/29 11:37:19;;;;;;;1.70;1.60;;;;;;;20.29;43.63;99059.39;1747692;82;21106;-76
2022/09/29 11:40:16;;;;;;;1.70;1.60;;;;;;;20.31;43.50;99053.08;1742271;82;21033;-79
2022/09/29 11:43:08;;;;;;;2.33;1.82;;;;;;;20.32;43.42;99059.34;1738681;82;21029;-77
2022/09/29 11:45:54;;;;;;;5.70;1.87;;;;;;;20.35;43.68;99064.94;1747140;82;21088;-75
2022/09/29 11:48:54;;;;;;;2.92;1.70;;;;;;;20.43;43.28;99066.81;1643679;85;21031;-71
2022/09/29 11:51:50;;;;;;;12.15;2.05;;;;;;;20.49;42.24;99072.09;1716957;83;21125;-72
2022/09/29 11:54:34;;;;;;;2.05;1.65;;;;;;;20.45;42.60;99076.86;1736107;82;21049;-71
2022/09/29 11:57:25;;;;;;;7.22;1.72;;;;;;;20.42;41.95;99073.43;1747555;82;21113;-75
2022/09/29 12:00:08;;;;;;;1.92;1.70;;;;;;;20.37;42.38;99073.61;1693231;83;20985;-85
2022/09/29 12:03:17;;;;;;;3.12;1.72;;;;;;;20.37;42.70;99070.88;1755276;80;21125;-77